createdAt,value
2022-09-28T16:22:14.738Z,58.64
2022-09-28T16:24:41.308Z,59.91
2022-09-28T16:27:40.211Z,62.51
2022-09-28T16:30:14.567Z,62.55
2022-09-28T16:33:02.021Z,62.82
2022-09-28T16:35:40.497Z,62.42
2022-09-28T16:38:15.223Z,63.81
2022-09-28T16:40:44.267Z,62.68
2022-09-28T16:43:36.630Z,64.29
2022-09-28T16:46:13.375Z,64.27
2022-09-28T16:48:48.975Z,64.57
2022-09-28T16:51:20.272Z,64.31
2022-09-28T16:54:05.695Z,63.75
2022-09-28T16:56:34.048Z,63.55
2022-09-28T16:59:02.194Z,64.25
2022-09-28T17:01:31.353Z,64.08
2022-09-28T17:03:58.345Z,64.57
2022-09-28T17:06:25.772Z,63.43
2022-09-28T17:08:53.360Z,62.94
2022-09-28T17:11:24.636Z,61.63
2022-09-28T17:13:52.302Z,62.97
2022-09-28T17:16:49.318Z,63.25
2022-09-28T17:19:20.129Z,63.06
2022-09-28T17:21:47.161Z,62.75
2022-09-28T17:24:13.898Z,63.16
2022-09-28T17:26:43.799Z,63.95
2022-09-28T17:29:14.612Z,65.56
2022-09-28T17:31:45.424Z,67.03
2022-09-28T17:34:15.278Z,66.50
2022-09-28T17:36:43.314Z,66.95
2022-09-28T17:39:18.534Z,67.31
2022-09-28T17:41:45.713Z,67.54
2022-09-28T17:44:16.275Z,66.75
2022-09-28T17:46:49.321Z,67.83
2022-09-28T17:49:17.043Z,69.20
2022-09-28T17:51:43.784Z,68.32
2022-09-28T17:54:12.918Z,69.88
2022-09-28T17:56:39.592Z,69.37
2022-09-28T17:59:10.501Z,69.03
2022-09-28T18:01:39.229Z,70.69
2022-09-28T18:04:08.886Z,69.06
2022-09-28T18:06:37.261Z,69.00
2022-09-28T18:09:05.083Z,70.41
2022-09-28T18:11:33.293Z,71.07
2022-09-28T18:13:59.926Z,73.58
2022-09-28T18:16:28.736Z,72.61
2022-09-28T18:18:55.678Z,73.25
2022-09-28T18:21:22.295Z,73.10
2022-09-28T18:23:48.880Z,74.93
2022-09-28T18:26:16.811Z,76.05
2022-09-28T18:28:43.477Z,79.55
2022-09-28T18:31:12.672Z,82.42
2022-09-28T18:33:39.544Z,84.59
2022-09-28T18:36:07.723Z,89.48
2022-09-28T18:38:38.369Z,90.49
2022-09-28T18:41:10.535Z,91.62
2022-09-28T18:43:37.634Z,94.93
2022-09-28T18:46:11.329Z,96.46
2022-09-28T18:48:40.596Z,98.67
2022-09-28T18:51:12.045Z,100.00
2022-09-28T18:53:39.520Z,99.87
2022-09-28T18:56:08.269Z,99.53
2022-09-28T18:58:39.978Z,97.53
2022-09-28T19:04:04.666Z,85.19
2022-09-28T19:06:32.081Z,84.72
2022-09-28T19:08:59.074Z,82.23
2022-09-28T19:11:25.839Z,81.05
2022-09-28T19:13:54.438Z,81.81
2022-09-28T19:16:24.180Z,81.88
2022-09-28T19:18:52.434Z,80.91
2022-09-28T19:21:19.697Z,81.21
2022-09-28T19:23:49.569Z,78.57
2022-09-28T19:26:28.011Z,78.83
2022-09-28T19:28:57.351Z,79.62
2022-09-28T19:31:24.790Z,80.13
2022-09-28T19:33:51.385Z,79.84
2022-09-28T19:36:23.266Z,80.24
2022-09-28T19:38:51.797Z,79.77
2022-09-28T19:41:43.147Z,79.09
2022-09-28T19:44:30.046Z,79.62
2022-09-28T19:47:13.029Z,78.32
2022-09-28T19:49:41.166Z,81.11
2022-09-28T19:52:16.576Z,80.39
2022-09-28T19:54:45.431Z,80.90
2022-09-28T19:57:14.163Z,79.92
2022-09-28T19:59:40.741Z,79.64
2022-09-28T20:02:10.513Z,79.01
2022-09-28T20:04:37.147Z,80.59
2022-09-28T20:07:05.233Z,81.16
2022-09-28T20:09:32.437Z,81.63
2022-09-28T20:11:58.985Z,80.61
2022-09-28T20:14:25.994Z,80.65
2022-09-28T20:16:54.951Z,81.01
2022-09-28T20:19:23.398Z,81.49
2022-09-28T20:21:50.528Z,81.61
2022-09-28T20:24:17.289Z,82.81
2022-09-28T20:26:45.839Z,83.18
2022-09-28T20:29:12.915Z,84.45
2022-09-28T20:31:39.611Z,86.75
2022-09-28T20:34:06.799Z,91.52
2022-09-28T20:36:33.708Z,96.21
2022-09-28T20:39:04.300Z,100.00
2022-09-28T20:41:35.607Z,100.00
2022-09-28T20:44:05.697Z,100.00
2022-09-28T20:46:34.023Z,100.00
2022-09-28T20:49:00.637Z,100.00
2022-09-28T20:51:27.286Z,100.00
2022-09-28T20:53:56.205Z,100.00
2022-09-28T20:56:23.811Z,100.00
2022-09-28T20:58:51.181Z,100.00
2022-09-28T21:01:24.762Z,100.00
2022-09-28T21:03:53.926Z,100.00
2022-09-28T21:06:22.389Z,100.00
2022-09-28T21:08:49.634Z,100.00
2022-09-28T21:11:21.925Z,100.00
2022-09-28T21:13:52.813Z,100.00
2022-09-28T21:16:19.662Z,100.00
2022-09-28T21:18:47.064Z,100.00
2022-09-28T21:21:15.902Z,100.00
2022-09-28T21:23:45.293Z,100.00
2022-09-28T21:26:24.420Z,100.00
2022-09-28T21:28:58.431Z,100.00
2022-09-28T21:31:29.397Z,100.00
2022-09-28T21:33:56.797Z,100.00
2022-09-28T21:36:23.443Z,100.00
2022-09-28T21:38:50.168Z,100.00
2022-09-28T21:41:16.869Z,100.00
2022-09-28T21:43:43.483Z,100.00
2022-09-28T21:46:10.224Z,100.00
2022-09-28T21:48:36.927Z,100.00
2022-09-28T21:51:06.625Z,100.00
2022-09-28T21:53:35.447Z,100.00
2022-09-28T21:56:04.043Z,100.00
2022-09-28T21:58:32.176Z,100.00
2022-09-28T22:01:03.484Z,100.00
2022-09-28T22:03:31.543Z,100.00
2022-09-28T22:05:58.452Z,100.00
2022-09-28T22:08:26.262Z,100.00
2022-09-28T22:11:01.032Z,100.00
2022-09-28T22:13:28.857Z,100.00
2022-09-28T22:15:57.830Z,100.00
2022-09-28T22:18:25.686Z,100.00
2022-09-28T22:21:00.510Z,100.00
2022-09-28T22:23:30.497Z,100.00
2022-09-28T22:26:04.481Z,100.00
2022-09-28T22:28:31.767Z,100.00
2022-09-28T22:30:58.774Z,100.00
2022-09-28T22:33:26.453Z,100.00
2022-09-28T22:35:54.949Z,100.00
2022-09-28T22:38:23.321Z,100.00
2022-09-28T22:40:55.054Z,100.00
2022-09-28T22:43:26.166Z,100.00
2022-09-28T22:46:08.213Z,100.00
2022-09-28T22:48:35.336Z,100.00
2022-09-28T22:51:03.577Z,100.00
2022-09-28T22:53:30.396Z,100.00
2022-09-28T22:55:58.695Z,100.00
2022-09-28T22:58:25.304Z,100.00
2022-09-28T23:00:52.159Z,100.00
2022-09-28T23:03:18.958Z,100.00
2022-09-28T23:05:56.142Z,100.00
2022-09-28T23:08:23.928Z,100.00
2022-09-28T23:10:51.811Z,100.00
2022-09-28T23:13:18.581Z,100.00
2022-09-28T23:15:55.140Z,100.00
2022-09-28T23:18:21.837Z,100.00
2022-09-28T23:20:59.695Z,100.00
2022-09-28T23:23:27.309Z,100.00
2022-09-28T23:25:54.684Z,100.00
2022-09-28T23:28:23.319Z,100.00
2022-09-28T23:30:51.119Z,100.00
2022-09-28T23:33:18.805Z,100.00
2022-09-28T23:35:45.691Z,100.00
2022-09-28T23:38:13.683Z,100.00
2022-09-28T23:40:41.357Z,100.00
2022-09-28T23:43:08.602Z,100.00
2022-09-28T23:45:35.220Z,100.00
2022-09-28T23:48:02.252Z,100.00
2022-09-28T23:50:28.880Z,100.00
2022-09-28T23:52:55.629Z,100.00
2022-09-28T23:55:22.333Z,100.00
2022-09-28T23:57:48.940Z,100.00
